Terminal Aerodrome Forecast
Issued by NWS Flagstaff, AZ

Home | Current Version | Previous Version | Text Only | Print | Product List | Glossary On
Versions: 1 2 3 4 5 6 7 8 9 10 11 12 13 14
000
FTUS45 KFGZ 291120
TAFFLG
TAF
KFLG 291120Z 2912/3012 VRB05KT P6SM SCT100 SCT250
     FM291800 11006KT P6SM BKN090
     FM300100 VRB03KT P6SM BKN080 BKN200 PROB30 3001/3006 -TSRA
      BKN060CB=

USA.gov is the U.S. government's official web portal to all federal, state and local government web resources and services.